Rogerslacy, Texas
Current Conditions -  °F | °C
As of 2:35 AM on Saturday 25 Oct 2014 (Local Time) from KT65 Reporting Station
Clear Clear  
Wind Chill: 65°   Ceiling: Unl
Heat Index: 65°   Visibility: 7mi
Dew Point: 62°   Wind: 0mph
Humidity: 88%   Direction: NA
Pressure: 30.13"   Gusts: NA
Location:  26.2692°N, 97.8326°W
Report Text: KT65 250735Z AUTO 00000KT 7SM CLR 19/17 A3013 RMK AO2 T01850165
Loading
Personal Weather Stations






























Interactive Weather Map
Tropical Storm Tracking
New forecast layout! Learn more

10-Day Weather Forecast

Advertisements
Track Severe Weather on mobile